createdAt,value
2023-06-05T00:01:44.374Z,9.37
2023-06-05T00:04:12.461Z,9.48
2023-06-05T00:06:41.890Z,9.41
2023-06-05T00:09:13.702Z,9.29
2023-06-05T00:11:41.636Z,9.20
2023-06-05T00:14:09.933Z,9.23
2023-06-05T00:16:44.530Z,9.26
2023-06-05T00:19:13.338Z,9.31
2023-06-05T00:21:41.436Z,9.36
2023-06-05T00:24:09.380Z,9.27
2023-06-05T00:26:37.225Z,9.23
2023-06-05T00:29:05.238Z,9.31
2023-06-05T00:31:34.895Z,9.37
2023-06-05T00:34:02.889Z,9.29
2023-06-05T00:36:30.789Z,9.33
2023-06-05T00:38:58.824Z,9.32
2023-06-05T00:41:27.189Z,9.17
2023-06-05T00:43:55.628Z,9.03
2023-06-05T00:46:25.100Z,9.11
2023-06-05T00:48:53.164Z,9.12
2023-06-05T00:51:22.563Z,9.07
2023-06-05T00:53:51.514Z,8.94
2023-06-05T00:56:22.204Z,8.95
2023-06-05T00:58:50.406Z,8.93
2023-06-05T01:01:18.994Z,8.83
2023-06-05T01:03:49.555Z,8.72
2023-06-05T01:06:19.007Z,8.67
2023-06-05T01:08:47.816Z,8.68
2023-06-05T01:11:41.787Z,8.79
2023-06-05T01:14:17.613Z,8.90
2023-06-05T01:16:50.019Z,8.96
2023-06-05T01:19:18.360Z,9.06
2023-06-05T01:21:46.516Z,9.11
2023-06-05T01:24:17.050Z,9.12
2023-06-05T01:27:08.696Z,9.10
2023-06-05T01:29:58.272Z,8.99
2023-06-05T01:32:42.139Z,9.01
2023-06-05T01:35:12.211Z,8.95
2023-06-05T01:37:43.086Z,8.78
2023-06-05T01:40:15.419Z,8.69
2023-06-05T01:42:45.081Z,8.64
2023-06-05T01:45:14.415Z,8.61
2023-06-05T01:47:42.905Z,8.58
2023-06-05T01:50:13.926Z,8.55
2023-06-05T01:52:48.353Z,8.51
2023-06-05T01:55:25.264Z,8.48
2023-06-05T01:57:54.088Z,8.43
2023-06-05T02:00:22.410Z,8.46
2023-06-05T02:02:51.390Z,8.48
2023-06-05T02:05:23.285Z,8.57
2023-06-05T02:07:55.439Z,8.65
2023-06-05T02:10:25.016Z,8.52
2023-06-05T02:12:53.300Z,8.39
2023-06-05T02:15:21.176Z,8.38
2023-06-05T02:17:54.429Z,8.31
2023-06-05T02:20:25.690Z,8.38
2023-06-05T02:22:55.903Z,8.45
2023-06-05T02:25:27.928Z,8.49
2023-06-05T02:27:57.149Z,8.58
2023-06-05T02:30:26.165Z,8.62
2023-06-05T02:33:05.863Z,8.69
2023-06-05T02:35:33.955Z,8.78
2023-06-05T02:38:02.580Z,8.82
2023-06-05T02:40:30.602Z,8.84
2023-06-05T02:42:58.505Z,8.75
2023-06-05T02:45:26.422Z,8.66
2023-06-05T02:47:54.919Z,8.63
2023-06-05T02:50:23.052Z,8.61
2023-06-05T02:52:52.723Z,8.46
2023-06-05T02:55:41.588Z,8.30
2023-06-05T02:58:14.248Z,8.23
2023-06-05T03:00:50.702Z,8.25
2023-06-05T03:03:21.598Z,8.29
2023-06-05T03:05:50.780Z,8.33
2023-06-05T03:08:18.820Z,8.31
2023-06-05T03:10:51.534Z,8.29
2023-06-05T03:13:20.311Z,8.28
2023-06-05T03:15:48.258Z,8.43
2023-06-05T03:18:17.902Z,8.57
2023-06-05T03:20:46.607Z,8.54
2023-06-05T03:23:15.072Z,8.54
2023-06-05T03:25:43.165Z,8.55
2023-06-05T03:28:11.184Z,8.56
2023-06-05T03:30:39.081Z,8.60
2023-06-05T03:33:08.625Z,8.67
2023-06-05T03:35:37.320Z,8.77
2023-06-05T03:38:07.220Z,8.88
2023-06-05T03:40:35.368Z,9.02
2023-06-05T03:43:03.574Z,9.16
2023-06-05T03:45:42.075Z,9.22
2023-06-05T03:48:10.406Z,9.26
2023-06-05T03:50:42.484Z,9.33
2023-06-05T03:53:11.630Z,9.43
2023-06-05T03:55:42.779Z,9.54
2023-06-05T03:58:15.243Z,9.66
2023-06-05T04:00:52.819Z,9.80
2023-06-05T04:03:21.991Z,9.94
2023-06-05T04:05:52.556Z,10.05
2023-06-05T04:08:21.107Z,10.18
2023-06-05T04:10:49.059Z,10.31
2023-06-05T04:13:17.109Z,10.44
2023-06-05T04:15:45.535Z,10.57
2023-06-05T04:18:13.656Z,10.67
2023-06-05T04:20:45.634Z,10.79
2023-06-05T04:23:13.534Z,10.90
2023-06-05T04:25:46.533Z,11.00
2023-06-05T04:28:16.464Z,11.11
2023-06-05T04:30:47.712Z,11.21
2023-06-05T04:33:17.981Z,11.31
2023-06-05T04:35:46.940Z,11.40
2023-06-05T04:38:14.933Z,11.49
2023-06-05T04:40:44.885Z,11.59
2023-06-05T04:43:13.155Z,11.71
2023-06-05T04:45:42.405Z,11.82
2023-06-05T04:48:11.781Z,11.96
2023-06-05T04:50:39.909Z,12.10
2023-06-05T04:53:11.926Z,12.28
2023-06-05T04:55:49.067Z,12.47
2023-06-05T04:58:24.701Z,12.63
2023-06-05T05:00:52.771Z,12.80
2023-06-05T05:03:21.555Z,12.94
2023-06-05T05:05:50.188Z,13.07
2023-06-05T05:08:24.273Z,13.16
2023-06-05T05:10:52.155Z,13.25
2023-06-05T05:13:20.462Z,13.32
2023-06-05T05:15:48.608Z,13.45
2023-06-05T05:18:18.227Z,13.59
2023-06-05T05:20:47.099Z,13.73
2023-06-05T05:23:18.556Z,13.86
2023-06-05T05:25:46.897Z,14.01
2023-06-05T05:28:15.294Z,14.13
2023-06-05T05:30:43.178Z,14.25
2023-06-05T05:33:15.965Z,14.36
2023-06-05T05:35:46.447Z,14.49
2023-06-05T05:38:15.418Z,14.61
2023-06-05T05:40:44.120Z,14.72
2023-06-05T05:43:12.756Z,14.84
2023-06-05T05:45:41.985Z,14.96
2023-06-05T05:48:10.238Z,15.08
2023-06-05T05:50:38.228Z,15.18
2023-06-05T05:53:06.153Z,15.28
2023-06-05T05:55:34.165Z,15.37
2023-06-05T05:58:02.026Z,15.46
2023-06-05T06:00:30.041Z,15.57
2023-06-05T06:03:07.158Z,15.68
2023-06-05T06:05:40.644Z,15.76
2023-06-05T06:08:08.539Z,15.84
2023-06-05T06:10:37.424Z,15.92
2023-06-05T06:13:05.642Z,16.01
2023-06-05T06:15:34.124Z,16.10
2023-06-05T06:18:03.553Z,16.21
2023-06-05T06:20:31.822Z,16.28
2023-06-05T06:23:00.850Z,16.36
2023-06-05T06:25:30.310Z,16.42
2023-06-05T06:28:01.002Z,16.51
2023-06-05T06:30:29.654Z,16.60
2023-06-05T06:33:01.525Z,16.67
2023-06-05T06:35:30.540Z,16.75
2023-06-05T06:37:59.648Z,16.82
2023-06-05T06:40:30.312Z,16.91
2023-06-05T06:42:58.606Z,17.00
2023-06-05T06:45:54.974Z,17.06
2023-06-05T06:48:22.940Z,17.10
2023-06-05T06:50:51.287Z,17.20
2023-06-05T06:53:19.929Z,17.29
2023-06-05T06:55:47.881Z,17.38
2023-06-05T06:58:15.856Z,17.46
2023-06-05T07:00:44.013Z,17.54
2023-06-05T07:03:12.014Z,17.65
2023-06-05T07:05:41.980Z,17.75
2023-06-05T07:08:10.928Z,17.83
2023-06-05T07:10:38.780Z,17.94
2023-06-05T07:13:08.340Z,18.04
2023-06-05T07:15:36.232Z,18.13
2023-06-05T07:18:07.521Z,18.17
2023-06-05T07:20:35.694Z,18.22
2023-06-05T07:23:04.990Z,18.27
2023-06-05T07:25:33.129Z,18.29
2023-06-05T07:28:01.591Z,18.38
2023-06-05T07:30:29.631Z,18.46
2023-06-05T07:32:58.079Z,18.54
2023-06-05T07:35:26.307Z,18.58
2023-06-05T07:37:54.297Z,18.63
2023-06-05T07:40:22.459Z,18.70
2023-06-05T07:42:50.280Z,18.74
2023-06-05T07:45:25.132Z,18.78
2023-06-05T07:47:53.577Z,18.86
2023-06-05T07:50:21.655Z,18.92
2023-06-05T07:52:50.269Z,18.99
2023-06-05T07:55:23.336Z,19.07
2023-06-05T07:57:54.315Z,19.14
2023-06-05T08:00:22.433Z,19.21
2023-06-05T08:02:51.664Z,19.25
2023-06-05T08:05:20.490Z,19.31
2023-06-05T08:07:48.322Z,19.40
2023-06-05T08:10:16.362Z,19.47
2023-06-05T08:12:44.201Z,19.50
2023-06-05T08:15:12.245Z,19.52
2023-06-05T08:17:55.713Z,19.55
2023-06-05T08:20:34.521Z,19.60
2023-06-05T08:23:02.785Z,19.61
2023-06-05T08:25:30.801Z,19.65
2023-06-05T08:27:58.788Z,19.73
2023-06-05T08:30:26.705Z,19.78
2023-06-05T08:32:54.571Z,19.83
2023-06-05T08:35:22.667Z,19.88
2023-06-05T08:37:50.641Z,19.95
2023-06-05T08:40:19.891Z,19.96
2023-06-05T08:42:47.891Z,19.98
2023-06-05T08:45:15.963Z,19.97
2023-06-05T08:47:50.275Z,19.96
2023-06-05T08:50:18.605Z,20.01
2023-06-05T08:52:47.825Z,20.04
2023-06-05T08:55:16.248Z,20.06
2023-06-05T08:57:44.249Z,20.09
2023-06-05T09:00:13.299Z,20.09
2023-06-05T09:02:48.176Z,20.13
2023-06-05T09:05:18.428Z,20.24
2023-06-05T09:07:46.942Z,20.41
2023-06-05T09:10:26.364Z,20.51
2023-06-05T09:12:56.243Z,20.63
2023-06-05T09:15:26.281Z,20.68
2023-06-05T09:18:03.424Z,20.71
2023-06-05T09:20:35.943Z,20.77
2023-06-05T09:23:08.855Z,20.81
2023-06-05T09:25:50.109Z,20.86
2023-06-05T09:28:18.693Z,20.94
2023-06-05T09:30:56.395Z,21.01
2023-06-05T09:33:25.858Z,21.02
2023-06-05T09:36:04.963Z,21.01
2023-06-05T09:38:33.690Z,21.03
2023-06-05T09:41:10.131Z,21.11
2023-06-05T09:43:45.002Z,21.08
2023-06-05T09:46:17.486Z,21.07
2023-06-05T09:48:58.330Z,21.13
2023-06-05T09:51:27.453Z,21.21
2023-06-05T09:53:57.787Z,21.29
2023-06-05T09:56:27.571Z,21.32
2023-06-05T09:58:56.701Z,21.36
2023-06-05T10:01:25.969Z,21.42
2023-06-05T10:04:15.017Z,21.48
2023-06-05T10:06:43.906Z,21.45
2023-06-05T10:09:12.778Z,21.46
2023-06-05T10:11:42.595Z,21.44
2023-06-05T10:14:11.071Z,21.51
2023-06-05T10:16:39.496Z,21.56
2023-06-05T10:19:08.551Z,21.64
2023-06-05T10:21:37.468Z,21.72
2023-06-05T10:24:11.135Z,21.80
2023-06-05T10:26:52.889Z,21.89
2023-06-05T10:29:45.731Z,21.92
2023-06-05T10:32:29.564Z,21.90
2023-06-05T10:35:07.310Z,21.98
2023-06-05T10:37:38.334Z,21.97
2023-06-05T10:40:11.464Z,21.94
2023-06-05T10:42:39.525Z,21.87
2023-06-05T10:45:08.506Z,21.81
2023-06-05T10:47:36.735Z,21.76
2023-06-05T10:50:17.567Z,21.81
2023-06-05T10:52:47.109Z,21.96
2023-06-05T10:55:18.534Z,22.13
2023-06-05T10:58:02.017Z,22.30
2023-06-05T11:00:34.448Z,22.31
2023-06-05T11:03:02.872Z,22.17
2023-06-05T11:05:31.711Z,22.15
2023-06-05T11:08:16.487Z,22.26
2023-06-05T11:11:17.624Z,22.37
2023-06-05T11:13:59.465Z,22.46
2023-06-05T11:16:33.509Z,22.50
2023-06-05T11:19:16.997Z,22.55
2023-06-05T11:22:07.096Z,22.55
2023-06-05T11:24:36.431Z,22.59
2023-06-05T11:27:07.032Z,22.64
2023-06-05T11:29:44.783Z,22.68
2023-06-05T11:32:14.082Z,22.77
2023-06-05T11:34:48.163Z,22.85
2023-06-05T11:37:19.342Z,22.85
2023-06-05T11:39:47.558Z,22.86
2023-06-05T11:42:24.375Z,22.90
2023-06-05T11:44:52.450Z,22.94
2023-06-05T11:47:25.182Z,22.98
2023-06-05T11:49:57.525Z,23.08
2023-06-05T11:52:26.020Z,23.20
2023-06-05T11:55:06.423Z,23.38
2023-06-05T11:57:51.087Z,23.47
2023-06-05T12:00:24.949Z,23.62
2023-06-05T12:02:54.318Z,23.71
2023-06-05T12:05:22.497Z,23.68
2023-06-05T12:07:52.060Z,23.69
2023-06-05T12:10:20.977Z,23.73
2023-06-05T12:12:54.929Z,23.75
2023-06-05T12:15:25.588Z,23.71
2023-06-05T12:17:56.767Z,23.67
2023-06-05T12:20:24.866Z,23.69
2023-06-05T12:22:53.050Z,23.67
2023-06-05T12:25:24.285Z,23.75
2023-06-05T12:27:53.589Z,23.81
2023-06-05T12:30:21.731Z,23.85
2023-06-05T12:32:50.185Z,23.84
2023-06-05T12:35:21.409Z,23.85
2023-06-05T12:37:52.608Z,23.87
2023-06-05T12:40:34.973Z,23.93
2023-06-05T12:43:06.584Z,24.06
2023-06-05T12:45:34.713Z,24.06
2023-06-05T12:48:04.034Z,24.00
2023-06-05T12:50:38.954Z,24.06
2023-06-05T12:53:06.883Z,24.15
2023-06-05T12:55:35.127Z,24.13
2023-06-05T12:58:03.234Z,24.14
2023-06-05T13:00:34.175Z,24.17
2023-06-05T13:03:05.980Z,24.17
2023-06-05T13:05:36.090Z,24.08
2023-06-05T13:08:08.031Z,24.07
2023-06-05T13:10:38.375Z,24.15
2023-06-05T13:13:07.029Z,24.26
2023-06-05T13:15:35.011Z,24.32
2023-06-05T13:18:03.079Z,24.34
2023-06-05T13:20:31.309Z,24.40
2023-06-05T13:22:59.701Z,24.47
2023-06-05T13:25:28.369Z,24.57
2023-06-05T13:33:12.204Z,24.76
2023-06-05T13:59:08.618Z,24.61
2023-06-05T14:01:36.758Z,24.58
2023-06-05T14:04:05.928Z,24.58
2023-06-05T14:06:44.426Z,24.58
2023-06-05T14:09:14.874Z,24.64
2023-06-05T14:11:46.020Z,24.66
2023-06-05T14:14:14.434Z,24.64
2023-06-05T14:16:45.198Z,24.65
2023-06-05T14:19:13.242Z,24.66
2023-06-05T14:21:42.839Z,24.71
2023-06-05T14:24:17.881Z,24.82
2023-06-05T14:26:47.391Z,24.89
2023-06-05T14:29:15.349Z,25.00
2023-06-05T14:31:43.692Z,25.13
2023-06-05T14:34:12.578Z,25.16
2023-06-05T14:36:43.071Z,25.10
2023-06-05T14:39:13.630Z,25.02
2023-06-05T14:41:42.372Z,24.98
2023-06-05T14:44:22.430Z,24.93
2023-06-05T14:46:56.820Z,25.02
2023-06-05T14:49:26.318Z,25.07
2023-06-05T14:51:54.739Z,24.98
2023-06-05T14:54:23.356Z,24.87
2023-06-05T14:56:51.613Z,24.72
2023-06-05T15:01:53.607Z,24.70
2023-06-05T15:04:22.116Z,24.70
2023-06-05T15:06:52.730Z,24.68
2023-06-05T15:09:22.380Z,24.70
2023-06-05T15:11:52.238Z,24.68
2023-06-05T15:14:20.915Z,24.68
2023-06-05T15:16:50.046Z,24.76
2023-06-05T15:19:18.346Z,24.88
2023-06-05T15:21:46.510Z,24.93
2023-06-05T15:24:14.525Z,24.89
2023-06-05T15:26:43.078Z,24.83
2023-06-05T15:29:11.198Z,24.79
2023-06-05T15:31:42.476Z,24.63
2023-06-05T15:34:11.234Z,24.64
2023-06-05T15:36:43.035Z,24.68
2023-06-05T15:39:14.330Z,24.71
2023-06-05T15:41:42.843Z,24.61
2023-06-05T15:44:17.095Z,24.51
2023-06-05T15:46:46.761Z,24.55
2023-06-05T15:49:15.147Z,24.70
2023-06-05T15:51:43.335Z,24.76
2023-06-05T15:54:34.251Z,24.75
2023-06-05T15:57:08.589Z,24.77
2023-06-05T15:59:36.929Z,24.81
2023-06-05T16:02:05.754Z,24.79
2023-06-05T16:04:35.385Z,24.77
2023-06-05T16:07:04.398Z,24.77
2023-06-05T16:09:32.737Z,24.78
2023-06-05T16:12:02.109Z,24.70
2023-06-05T16:14:31.758Z,24.67
2023-06-05T16:17:00.199Z,24.75
2023-06-05T16:19:32.238Z,24.78
2023-06-05T16:22:07.392Z,24.74
2023-06-05T16:24:35.992Z,24.72
2023-06-05T16:27:04.233Z,24.75
2023-06-05T16:29:33.011Z,24.80
2023-06-05T16:32:01.247Z,24.84
2023-06-05T16:34:51.095Z,24.86
2023-06-05T16:37:19.771Z,24.88
2023-06-05T16:39:47.825Z,24.90
2023-06-05T16:42:16.179Z,24.91
2023-06-05T16:44:44.074Z,24.91
2023-06-05T16:47:12.197Z,24.88
2023-06-05T16:49:40.269Z,24.85
2023-06-05T16:52:08.724Z,24.80
2023-06-05T16:54:36.740Z,24.72
2023-06-05T16:57:06.949Z,24.68
2023-06-05T16:59:35.155Z,24.66
2023-06-05T17:02:04.054Z,24.63
2023-06-05T17:04:36.488Z,24.57
2023-06-05T17:07:06.786Z,24.53
2023-06-05T17:09:35.510Z,24.50
2023-06-05T17:12:03.915Z,24.42
2023-06-05T17:14:32.427Z,24.35
2023-06-05T17:17:02.092Z,24.31
2023-06-05T17:19:30.159Z,24.24
2023-06-05T17:21:58.164Z,24.17
2023-06-05T17:24:34.117Z,24.12
2023-06-05T17:27:05.192Z,24.06
2023-06-05T17:29:33.818Z,24.01
2023-06-05T17:32:02.303Z,23.96
2023-06-05T17:34:31.215Z,23.89
2023-06-05T17:37:00.291Z,23.84
2023-06-05T17:39:29.661Z,23.76
2023-06-05T17:41:57.862Z,23.68
2023-06-05T17:44:26.418Z,23.65
2023-06-05T17:46:55.301Z,23.60
2023-06-05T17:49:25.557Z,23.56
2023-06-05T17:51:54.947Z,23.50
2023-06-05T17:54:26.267Z,23.41
2023-06-05T17:56:57.193Z,23.31
2023-06-05T17:59:25.807Z,23.17
2023-06-05T18:01:55.707Z,23.07
2023-06-05T18:04:24.844Z,22.96
2023-06-05T18:06:52.953Z,22.86
2023-06-05T18:09:25.973Z,22.74
2023-06-05T18:11:54.074Z,22.65
2023-06-05T18:14:23.810Z,22.48
2023-06-05T18:16:52.325Z,22.30
2023-06-05T18:19:23.070Z,22.16
2023-06-05T18:21:51.615Z,22.03
2023-06-05T18:24:19.892Z,21.95
2023-06-05T18:26:47.885Z,21.83
2023-06-05T18:29:19.031Z,21.67
2023-06-05T18:31:49.293Z,21.49
2023-06-05T18:34:17.537Z,21.36
2023-06-05T18:36:46.127Z,21.19
2023-06-05T18:39:15.732Z,21.01
2023-06-05T18:41:46.251Z,20.79
2023-06-05T18:44:16.027Z,20.64
2023-06-05T18:46:53.659Z,20.49
2023-06-05T18:49:22.244Z,20.35
2023-06-05T18:51:51.658Z,20.23
2023-06-05T18:54:20.247Z,20.07
2023-06-05T18:56:50.320Z,19.93
2023-06-05T18:59:21.077Z,19.74
2023-06-05T19:01:56.561Z,19.54
2023-06-05T19:04:38.637Z,19.37
2023-06-05T19:07:22.422Z,19.22
2023-06-05T19:09:53.527Z,19.08
2023-06-05T19:12:24.275Z,18.94
2023-06-05T19:14:52.886Z,18.79
2023-06-05T19:17:31.216Z,18.71
2023-06-05T19:19:59.885Z,18.57
2023-06-05T19:22:29.010Z,18.40
2023-06-05T19:24:59.529Z,18.31
2023-06-05T19:27:30.504Z,18.21
2023-06-05T19:30:01.803Z,18.13
2023-06-05T19:32:31.434Z,18.07
2023-06-05T19:35:00.337Z,17.99
2023-06-05T19:37:28.787Z,17.88
2023-06-05T19:39:59.048Z,17.69
2023-06-05T19:42:30.525Z,17.55
2023-06-05T19:45:02.719Z,17.44
2023-06-05T19:47:55.003Z,17.34
2023-06-05T19:50:23.830Z,17.30
2023-06-05T19:52:52.621Z,17.27
2023-06-05T19:55:21.237Z,17.21
2023-06-05T19:57:56.093Z,17.11
2023-06-05T20:00:24.644Z,17.04
2023-06-05T20:02:52.573Z,16.95
2023-06-05T20:05:21.750Z,16.85
2023-06-05T20:07:52.180Z,16.67
2023-06-05T20:10:20.514Z,16.58
2023-06-05T20:12:49.204Z,16.56
2023-06-05T20:15:17.486Z,16.50
2023-06-05T20:17:47.656Z,16.46
2023-06-05T20:20:17.933Z,16.44
2023-06-05T20:22:53.273Z,16.40
2023-06-05T20:25:25.861Z,16.38
2023-06-05T20:27:57.462Z,16.37
2023-06-05T20:30:30.339Z,16.35
2023-06-05T20:32:59.808Z,16.27
2023-06-05T20:35:31.350Z,16.26
2023-06-05T20:37:59.465Z,16.25
2023-06-05T20:40:31.898Z,16.20
2023-06-05T20:43:01.936Z,16.19
2023-06-05T20:45:30.003Z,16.23
2023-06-05T20:48:01.786Z,16.24
2023-06-05T20:50:30.429Z,16.26
2023-06-05T20:52:58.592Z,16.24
2023-06-05T20:55:26.942Z,16.22
2023-06-05T20:57:55.223Z,16.24
2023-06-05T21:00:23.448Z,16.26
2023-06-05T21:02:59.439Z,16.26
2023-06-05T21:05:28.494Z,16.24
2023-06-05T21:08:17.292Z,16.21
2023-06-05T21:10:45.050Z,16.17
2023-06-05T21:13:13.249Z,16.17
2023-06-05T21:15:41.556Z,16.21
2023-06-05T21:18:12.480Z,16.24
2023-06-05T21:21:00.506Z,16.25
2023-06-05T21:23:28.466Z,16.27
2023-06-05T21:25:56.996Z,16.26
2023-06-05T21:28:30.416Z,16.26
2023-06-05T21:31:00.028Z,16.26
2023-06-05T21:33:28.160Z,16.25
2023-06-05T21:35:58.346Z,16.24
2023-06-05T21:38:26.883Z,16.24
2023-06-05T21:40:54.821Z,16.23
2023-06-05T21:43:23.372Z,16.21
2023-06-05T21:45:52.052Z,16.18
2023-06-05T21:48:21.993Z,16.18
2023-06-05T21:50:49.800Z,16.14
2023-06-05T21:53:17.825Z,16.13
2023-06-05T21:55:53.139Z,16.06
2023-06-05T21:58:21.126Z,15.97
2023-06-05T22:00:49.038Z,15.94
2023-06-05T22:03:21.142Z,15.93
2023-06-05T22:05:50.643Z,15.94
2023-06-05T22:08:18.614Z,15.91
2023-06-05T22:10:46.624Z,15.91
2023-06-05T22:13:14.461Z,15.85
2023-06-05T22:15:42.918Z,15.81
2023-06-05T22:18:17.580Z,15.74
2023-06-05T22:20:45.917Z,15.68
2023-06-05T22:23:13.953Z,15.67
2023-06-05T22:25:51.935Z,15.67
2023-06-05T22:28:27.811Z,15.69
2023-06-05T22:30:55.800Z,15.70
2023-06-05T22:33:23.873Z,15.67
2023-06-05T22:35:51.976Z,15.66
2023-06-05T22:38:22.142Z,15.66
2023-06-05T22:40:50.100Z,15.64
2023-06-05T22:43:18.021Z,15.54
2023-06-05T22:45:46.032Z,15.48
2023-06-05T22:48:19.226Z,15.47
2023-06-05T22:50:48.268Z,15.47
2023-06-05T22:53:16.318Z,15.48
2023-06-05T22:55:44.905Z,15.49
2023-06-05T22:58:14.929Z,15.51
2023-06-05T23:00:44.521Z,15.43
2023-06-05T23:03:14.252Z,15.38
2023-06-05T23:05:42.714Z,15.37
2023-06-05T23:08:15.363Z,15.33
2023-06-05T23:10:48.543Z,15.25
2023-06-05T23:13:17.086Z,15.17
2023-06-05T23:15:45.853Z,15.12
2023-06-05T23:18:14.656Z,15.12
2023-06-05T23:20:43.565Z,15.08
2023-06-05T23:23:13.758Z,15.01
2023-06-05T23:25:42.214Z,14.95
2023-06-05T23:28:11.885Z,14.86
2023-06-05T23:30:40.156Z,14.85
2023-06-05T23:33:08.774Z,14.83
2023-06-05T23:35:37.004Z,14.82
2023-06-05T23:38:04.910Z,14.80
2023-06-05T23:40:33.451Z,14.78
2023-06-05T23:43:01.426Z,14.71
2023-06-05T23:45:33.184Z,14.70
2023-06-05T23:48:07.883Z,14.70
2023-06-05T23:50:36.151Z,14.65
2023-06-05T23:53:04.027Z,14.65
2023-06-05T23:55:37.792Z,14.67
2023-06-05T23:58:06.016Z,14.63
